createdAt,value
2023-02-19T00:01:48.901Z,60.77
2023-02-19T00:04:19.169Z,59.95
2023-02-19T00:06:48.352Z,58.97
2023-02-19T00:09:17.459Z,59.10
2023-02-19T00:11:45.035Z,62.81
2023-02-19T00:14:19.714Z,65.09
2023-02-19T00:16:47.349Z,63.77
2023-02-19T00:19:17.805Z,62.55
2023-02-19T00:21:45.291Z,61.71
2023-02-19T00:24:14.045Z,60.82
2023-02-19T00:26:43.228Z,59.84
2023-02-19T00:29:15.446Z,58.25
2023-02-19T00:31:43.142Z,59.79
2023-02-19T00:34:12.384Z,64.57
2023-02-19T00:36:41.593Z,64.82
2023-02-19T00:39:09.665Z,63.29
2023-02-19T00:41:36.854Z,62.03
2023-02-19T00:44:08.305Z,62.07
2023-02-19T00:46:42.493Z,61.54
2023-02-19T00:49:17.334Z,60.94
2023-02-19T00:51:45.070Z,60.43
2023-02-19T00:54:13.397Z,59.59
2023-02-19T00:56:40.893Z,58.35
2023-02-19T00:59:08.357Z,60.30
2023-02-19T01:01:35.717Z,63.69
2023-02-19T01:04:04.831Z,65.62
2023-02-19T01:06:35.128Z,63.17
2023-02-19T01:09:03.110Z,62.56
2023-02-19T01:11:30.450Z,61.55
2023-02-19T01:13:59.534Z,61.06
2023-02-19T01:16:28.064Z,60.13
2023-02-19T01:18:56.873Z,60.23
2023-02-19T01:21:26.423Z,60.06
2023-02-19T01:23:54.549Z,59.18
2023-02-19T01:26:27.767Z,58.47
2023-02-19T01:28:55.672Z,60.22
2023-02-19T01:31:25.369Z,63.68
2023-02-19T01:33:59.509Z,66.18
2023-02-19T01:36:27.285Z,64.46
2023-02-19T01:38:54.568Z,63.63
2023-02-19T01:41:26.050Z,62.83
2023-02-19T01:44:08.888Z,62.02
2023-02-19T01:46:38.163Z,61.15
2023-02-19T01:49:13.055Z,60.62
2023-02-19T01:51:45.646Z,60.29
2023-02-19T01:54:14.628Z,60.11
2023-02-19T01:56:44.649Z,59.87
2023-02-19T01:59:12.686Z,59.67
2023-02-19T02:04:28.123Z,59.70
2023-02-19T02:07:01.425Z,64.30
2023-02-19T02:09:49.754Z,65.33
2023-02-19T02:12:16.962Z,63.96
2023-02-19T02:14:48.736Z,62.82
2023-02-19T02:17:26.346Z,61.53
2023-02-19T02:20:03.245Z,60.36
2023-02-19T02:22:36.879Z,60.21
2023-02-19T02:25:22.456Z,58.77
2023-02-19T02:28:41.437Z,60.12
2023-02-19T02:31:20.273Z,65.03
2023-02-19T02:33:50.267Z,64.69
2023-02-19T02:36:25.150Z,63.37
2023-02-19T02:38:54.591Z,62.12
2023-02-19T02:41:22.130Z,62.34
2023-02-19T02:43:49.278Z,61.73
2023-02-19T02:46:23.173Z,61.50
2023-02-19T02:48:55.799Z,61.58
2023-02-19T02:51:32.772Z,61.21
2023-02-19T02:54:30.714Z,61.06
2023-02-19T02:57:00.285Z,60.34
2023-02-19T02:59:32.634Z,58.47
2023-02-19T03:02:14.838Z,58.49
2023-02-19T03:05:13.370Z,63.41
2023-02-19T03:08:01.251Z,65.78
2023-02-19T03:10:51.978Z,65.03
2023-02-19T03:13:53.028Z,62.74
2023-02-19T03:16:49.315Z,62.03
2023-02-19T03:19:20.009Z,61.53
2023-02-19T03:21:56.617Z,61.01
2023-02-19T03:24:48.961Z,60.69
2023-02-19T03:27:19.827Z,60.32
2023-02-19T03:29:50.247Z,60.37
2023-02-19T03:32:29.778Z,60.16
2023-02-19T03:35:12.084Z,58.49
2023-02-19T03:37:47.373Z,59.36
2023-02-19T03:40:15.715Z,62.10
2023-02-19T03:42:59.823Z,66.67
2023-02-19T03:45:38.332Z,66.05
2023-02-19T03:48:39.108Z,63.35
2023-02-19T03:51:25.398Z,62.12
2023-02-19T03:54:24.240Z,61.73
2023-02-19T03:57:00.744Z,61.41
2023-02-19T03:59:40.697Z,60.49
2023-02-19T04:02:17.687Z,60.44
2023-02-19T04:05:01.775Z,60.13
2023-02-19T04:07:31.775Z,58.34
2023-02-19T04:09:59.517Z,60.74
2023-02-19T04:12:28.107Z,65.33
2023-02-19T04:15:07.086Z,64.94
2023-02-19T04:17:40.407Z,63.41
2023-02-19T04:20:10.714Z,62.74
2023-02-19T04:22:39.730Z,61.26
2023-02-19T04:25:08.242Z,60.43
2023-02-19T04:27:42.122Z,59.88
2023-02-19T04:30:12.417Z,59.80
2023-02-19T04:32:39.697Z,63.04
2023-02-19T04:35:07.639Z,65.01
2023-02-19T04:37:34.906Z,63.97
2023-02-19T04:40:02.084Z,62.13
2023-02-19T04:42:29.818Z,62.09
2023-02-19T04:44:57.059Z,61.46
2023-02-19T04:47:24.852Z,60.41
2023-02-19T04:49:52.244Z,60.26
2023-02-19T04:52:19.351Z,60.25
2023-02-19T04:54:46.537Z,59.74
2023-02-19T04:57:14.313Z,58.21
2023-02-19T04:59:41.528Z,60.02
2023-02-19T05:02:08.748Z,64.26
2023-02-19T05:04:36.090Z,65.32
2023-02-19T05:07:03.343Z,64.21
2023-02-19T05:09:30.568Z,63.14
2023-02-19T05:11:58.253Z,62.97
2023-02-19T05:14:25.558Z,61.96
2023-02-19T05:16:52.826Z,61.28
2023-02-19T05:19:20.628Z,61.34
2023-02-19T05:21:47.879Z,60.62
2023-02-19T05:24:15.109Z,60.52
2023-02-19T05:26:45.362Z,60.06
2023-02-19T05:29:12.886Z,58.34
2023-02-19T05:31:40.221Z,60.44
2023-02-19T05:34:08.044Z,61.16
2023-02-19T05:36:35.128Z,65.57
2023-02-19T05:39:02.326Z,67.02
2023-02-19T05:41:30.861Z,65.46
2023-02-19T05:43:58.703Z,63.88
2023-02-19T05:46:30.104Z,62.94
2023-02-19T05:48:58.682Z,62.21
2023-02-19T05:51:27.672Z,61.42
2023-02-19T05:53:57.744Z,60.74
2023-02-19T05:56:39.006Z,60.57
2023-02-19T05:59:26.822Z,60.01
2023-02-19T06:01:54.939Z,58.06
2023-02-19T06:04:23.041Z,59.76
2023-02-19T06:06:50.691Z,63.39
2023-02-19T06:09:18.764Z,67.06
2023-02-19T06:11:46.220Z,65.10
2023-02-19T06:14:15.007Z,63.96
2023-02-19T06:16:42.864Z,63.11
2023-02-19T06:19:10.701Z,62.34
2023-02-19T06:21:38.176Z,62.08
2023-02-19T06:24:09.758Z,61.15
2023-02-19T06:26:37.874Z,61.53
2023-02-19T06:29:05.189Z,61.13
2023-02-19T06:31:32.876Z,61.06
2023-02-19T06:34:00.284Z,60.66
2023-02-19T06:36:27.488Z,60.44
2023-02-19T06:38:54.718Z,60.63
2023-02-19T06:41:22.666Z,59.92
2023-02-19T06:43:51.381Z,60.12
2023-02-19T06:46:20.407Z,58.89
2023-02-19T06:48:49.113Z,58.51
2023-02-19T06:51:24.759Z,60.50
2023-02-19T06:53:52.066Z,64.74
2023-02-19T06:56:32.009Z,66.16
2023-02-19T06:59:02.623Z,64.76
2023-02-19T07:01:31.909Z,64.20
2023-02-19T07:04:00.785Z,62.90
2023-02-19T07:06:29.458Z,61.94
2023-02-19T07:08:58.761Z,62.89
2023-02-19T07:11:27.554Z,62.34
2023-02-19T07:13:59.643Z,61.21
2023-02-19T07:16:29.141Z,61.13
2023-02-19T07:19:00.334Z,61.11
2023-02-19T07:21:30.836Z,60.55
2023-02-19T07:24:00.564Z,60.67
2023-02-19T07:26:27.962Z,60.28
2023-02-19T07:28:55.288Z,60.15
2023-02-19T07:31:24.701Z,59.41
2023-02-19T07:33:53.352Z,58.78
2023-02-19T07:36:22.793Z,60.33
2023-02-19T07:39:00.535Z,64.71
2023-02-19T07:41:28.387Z,65.92
2023-02-19T07:43:55.713Z,64.53
2023-02-19T07:46:25.212Z,63.25
2023-02-19T07:48:53.280Z,62.67
2023-02-19T07:51:22.589Z,62.03
2023-02-19T07:53:53.575Z,61.49
2023-02-19T07:56:21.488Z,61.15
2023-02-19T07:58:49.195Z,61.17
2023-02-19T08:01:42.651Z,60.56
2023-02-19T08:04:12.176Z,60.44
2023-02-19T08:06:40.289Z,60.45
2023-02-19T08:09:09.098Z,60.33
2023-02-19T08:11:56.069Z,59.57
2023-02-19T08:14:28.251Z,58.97
2023-02-19T08:16:58.251Z,60.49
2023-02-19T08:19:27.724Z,65.17
2023-02-19T08:22:04.081Z,65.90
2023-02-19T08:24:37.952Z,64.74
2023-02-19T08:27:10.459Z,63.23
2023-02-19T08:29:40.438Z,62.74
2023-02-19T08:32:09.961Z,62.00
2023-02-19T08:34:43.281Z,61.66
2023-02-19T08:37:12.420Z,60.99
2023-02-19T08:39:40.928Z,60.48
2023-02-19T08:42:08.425Z,60.27
2023-02-19T08:44:36.070Z,60.17
2023-02-19T08:47:06.031Z,59.72
2023-02-19T08:49:35.521Z,59.56
2023-02-19T08:52:07.150Z,58.94
2023-02-19T08:54:37.261Z,58.26
2023-02-19T08:57:06.754Z,60.21
2023-02-19T08:59:35.437Z,64.57
2023-02-19T09:02:03.716Z,65.66
2023-02-19T09:04:32.038Z,63.57
2023-02-19T09:07:00.217Z,62.18
2023-02-19T09:09:30.585Z,60.89
2023-02-19T09:12:01.311Z,60.15
2023-02-19T09:14:33.953Z,58.01
2023-02-19T09:17:04.113Z,58.66
2023-02-19T09:19:33.662Z,61.78
2023-02-19T09:22:03.314Z,65.63
2023-02-19T09:24:33.266Z,65.00
2023-02-19T09:27:07.805Z,62.89
2023-02-19T09:29:36.839Z,61.45
2023-02-19T09:32:05.942Z,60.15
2023-02-19T09:34:35.073Z,58.97
2023-02-19T09:37:04.312Z,60.14
2023-02-19T09:39:34.094Z,62.72
2023-02-19T09:42:22.103Z,63.61
2023-02-19T09:44:56.214Z,61.95
2023-02-19T09:47:29.329Z,59.91
2023-02-19T09:50:05.362Z,57.67
2023-02-19T09:52:57.456Z,57.11
2023-02-19T09:55:41.548Z,58.29
2023-02-19T09:58:35.945Z,60.38
2023-02-19T10:01:10.192Z,66.53
2023-02-19T10:03:50.908Z,66.31
2023-02-19T10:06:28.397Z,63.69
2023-02-19T10:09:19.215Z,62.10
2023-02-19T10:11:52.503Z,60.43
2023-02-19T10:14:45.474Z,59.42
2023-02-19T10:17:25.578Z,57.87
2023-02-19T10:19:56.007Z,59.96
2023-02-19T10:22:26.148Z,62.40
2023-02-19T10:24:57.816Z,65.43
2023-02-19T10:27:32.933Z,64.15
2023-02-19T10:30:04.437Z,62.44
2023-02-19T10:32:37.493Z,61.20
2023-02-19T10:35:14.299Z,60.02
2023-02-19T10:37:50.225Z,59.63
2023-02-19T10:40:23.360Z,57.80
2023-02-19T10:43:06.231Z,57.76
2023-02-19T10:45:51.143Z,63.63
2023-02-19T10:48:34.049Z,64.42
2023-02-19T10:51:08.282Z,63.22
2023-02-19T10:53:52.694Z,62.12
2023-02-19T10:56:32.706Z,60.92
2023-02-19T10:59:29.528Z,58.61
2023-02-19T11:02:17.542Z,58.31
2023-02-19T11:05:06.517Z,60.80
2023-02-19T11:07:37.114Z,65.63
2023-02-19T11:10:12.564Z,65.76
2023-02-19T11:12:43.597Z,63.55
2023-02-19T11:15:42.240Z,61.84
2023-02-19T11:18:14.651Z,60.24
2023-02-19T11:21:04.612Z,59.83
2023-02-19T11:23:49.752Z,57.96
2023-02-19T11:26:27.901Z,57.74
2023-02-19T11:29:06.230Z,59.75
2023-02-19T11:31:40.750Z,64.33
2023-02-19T11:34:30.879Z,65.89
2023-02-19T11:37:16.023Z,63.85
2023-02-19T11:39:49.338Z,61.92
2023-02-19T11:42:34.089Z,60.90
2023-02-19T11:45:40.797Z,59.61
2023-02-19T11:48:53.075Z,58.26
2023-02-19T11:51:49.331Z,61.92
2023-02-19T11:54:53.739Z,63.82
2023-02-19T11:57:45.699Z,62.37
2023-02-19T12:00:29.320Z,60.84
2023-02-19T12:03:26.331Z,60.21
2023-02-19T12:06:22.357Z,59.51
2023-02-19T12:09:28.194Z,57.83
2023-02-19T12:12:23.388Z,59.92
2023-02-19T12:15:25.071Z,64.26
2023-02-19T12:18:01.824Z,64.93
2023-02-19T12:20:51.014Z,63.57
2023-02-19T12:24:14.560Z,62.02
2023-02-19T12:27:05.449Z,60.56
2023-02-19T12:30:15.091Z,57.94
2023-02-19T12:33:09.277Z,59.48
2023-02-19T12:36:07.280Z,62.88
2023-02-19T12:38:52.173Z,64.48
2023-02-19T12:41:58.758Z,63.02
2023-02-19T12:44:54.602Z,61.87
2023-02-19T12:47:31.809Z,60.71
2023-02-19T12:50:21.898Z,60.53
2023-02-19T12:52:57.571Z,58.75
2023-02-19T12:58:31.006Z,60.16
2023-02-19T13:01:02.615Z,65.77
2023-02-19T13:03:41.022Z,66.11
2023-02-19T13:06:25.393Z,64.03
2023-02-19T13:09:09.068Z,62.33
2023-02-19T13:11:48.804Z,61.01
2023-02-19T13:14:26.646Z,60.53
2023-02-19T13:17:22.278Z,60.02
2023-02-19T13:19:55.811Z,59.42
2023-02-19T13:22:56.019Z,61.21
2023-02-19T13:25:34.486Z,64.93
2023-02-19T13:28:22.423Z,64.10
2023-02-19T13:31:13.621Z,62.31
2023-02-19T13:34:16.335Z,61.79
2023-02-19T13:36:49.031Z,60.82
2023-02-19T13:39:25.162Z,59.84
2023-02-19T13:42:06.430Z,57.14
2023-02-19T13:44:39.114Z,58.17
2023-02-19T13:47:36.771Z,60.17
2023-02-19T13:50:21.039Z,65.25
2023-02-19T13:52:55.497Z,64.38
2023-02-19T13:55:50.237Z,62.06
2023-02-19T13:58:41.777Z,59.81
2023-02-19T14:01:18.349Z,59.01
2023-02-19T14:04:10.734Z,61.08
2023-02-19T14:07:06.843Z,64.03
2023-02-19T14:09:43.986Z,63.78
2023-02-19T14:12:18.411Z,62.01
2023-02-19T14:14:55.423Z,60.98
2023-02-19T14:17:45.725Z,59.01
2023-02-19T14:20:39.596Z,59.10
2023-02-19T14:23:21.868Z,63.31
2023-02-19T14:26:00.855Z,64.35
2023-02-19T14:28:47.812Z,62.99
2023-02-19T14:31:35.476Z,60.52
2023-02-19T14:34:09.040Z,59.58
2023-02-19T14:36:51.952Z,59.77
2023-02-19T14:39:40.101Z,62.63
2023-02-19T14:42:26.348Z,65.29
2023-02-19T14:45:01.665Z,63.65
2023-02-19T14:47:37.301Z,61.50
2023-02-19T14:50:17.482Z,59.19
2023-02-19T14:52:51.618Z,60.09
2023-02-19T14:55:39.720Z,63.21
2023-02-19T14:58:26.006Z,64.05
2023-02-19T15:01:02.086Z,62.30
2023-02-19T15:03:33.832Z,60.48
2023-02-19T15:06:19.567Z,58.72
2023-02-19T15:08:52.277Z,58.66
2023-02-19T15:11:24.823Z,60.62
2023-02-19T15:14:04.939Z,64.99
2023-02-19T15:16:40.101Z,64.52
2023-02-19T15:19:12.425Z,61.62
2023-02-19T15:21:53.811Z,59.76
2023-02-19T15:24:24.033Z,58.16
2023-02-19T15:26:57.769Z,58.52
2023-02-19T15:29:33.308Z,62.25
2023-02-19T15:32:04.256Z,64.46
2023-02-19T15:34:37.294Z,62.60
2023-02-19T15:37:10.495Z,60.72
2023-02-19T15:39:48.666Z,57.74
2023-02-19T15:42:28.950Z,58.94
2023-02-19T15:45:05.899Z,60.66
2023-02-19T15:47:46.015Z,65.42
2023-02-19T15:50:21.648Z,64.62
2023-02-19T15:53:07.539Z,62.26
2023-02-19T15:55:59.347Z,60.18
2023-02-19T15:58:44.270Z,57.25
2023-02-19T16:01:28.581Z,56.30
2023-02-19T16:03:59.792Z,61.56
2023-02-19T16:06:32.508Z,64.45
2023-02-19T16:09:05.729Z,63.58
2023-02-19T16:11:41.174Z,61.29
2023-02-19T16:14:31.968Z,60.12
2023-02-19T16:17:26.129Z,58.14
2023-02-19T16:19:57.138Z,57.27
2023-02-19T16:22:31.938Z,59.36
2023-02-19T16:25:04.541Z,63.08
2023-02-19T16:27:38.377Z,64.29
2023-02-19T16:30:18.552Z,61.53
2023-02-19T16:32:48.646Z,59.44
2023-02-19T16:35:43.154Z,57.28
2023-02-19T16:38:21.353Z,58.18
2023-02-19T16:40:53.341Z,60.88
2023-02-19T16:43:45.539Z,62.27
2023-02-19T16:46:15.613Z,65.99
2023-02-19T16:48:45.016Z,65.46
2023-02-19T16:51:37.086Z,62.42
2023-02-19T16:54:07.785Z,60.13
2023-02-19T16:56:37.401Z,57.45
2023-02-19T16:59:08.852Z,59.06
2023-02-19T17:01:43.174Z,62.41
2023-02-19T17:04:18.618Z,63.88
2023-02-19T17:06:52.043Z,61.49
2023-02-19T17:09:21.909Z,58.84
2023-02-19T17:11:51.704Z,57.85
2023-02-19T17:14:25.912Z,58.87
2023-02-19T17:16:57.177Z,60.05
2023-02-19T17:19:27.094Z,61.97
2023-02-19T17:21:57.979Z,64.49
2023-02-19T17:24:29.667Z,62.63
2023-02-19T17:26:58.616Z,60.07
2023-02-19T17:29:35.799Z,57.41
2023-02-19T17:32:06.531Z,56.79
2023-02-19T17:34:35.612Z,59.02
2023-02-19T17:37:07.659Z,63.38
2023-02-19T17:39:43.549Z,65.36
2023-02-19T17:42:13.649Z,62.78
2023-02-19T17:44:50.877Z,60.15
2023-02-19T17:47:23.234Z,57.39
2023-02-19T17:49:52.874Z,59.08
2023-02-19T17:52:23.593Z,61.50
2023-02-19T17:54:57.501Z,64.37
2023-02-19T17:57:34.781Z,62.84
2023-02-19T18:00:07.365Z,59.69
2023-02-19T18:02:40.663Z,56.54
2023-02-19T18:15:50.592Z,62.86
2023-02-19T18:18:20.118Z,60.88
2023-02-19T18:20:50.494Z,58.22
2023-02-19T18:23:34.722Z,58.22
2023-02-19T18:26:08.159Z,59.88
2023-02-19T18:28:38.781Z,63.83
2023-02-19T18:31:11.893Z,65.62
2023-02-19T18:33:44.571Z,63.07
2023-02-19T18:36:22.333Z,60.51
2023-02-19T18:38:52.690Z,57.77
2023-02-19T18:41:32.775Z,57.97
2023-02-19T18:44:04.883Z,59.66
2023-02-19T18:46:39.406Z,63.74
2023-02-19T18:49:11.049Z,64.91
2023-02-19T18:51:41.390Z,62.86
2023-02-19T18:54:21.835Z,60.80
2023-02-19T18:56:51.527Z,59.80
2023-02-19T19:21:19.026Z,59.38
2023-02-19T19:23:49.541Z,61.90
2023-02-19T19:26:20.428Z,63.85
2023-02-19T19:28:50.447Z,63.52
2023-02-19T19:31:30.022Z,61.40
2023-02-19T19:34:00.506Z,59.29
2023-02-19T19:36:34.986Z,56.57
2023-02-19T19:39:05.214Z,56.92
2023-02-19T19:41:35.851Z,58.69
2023-02-19T19:44:15.631Z,61.82
2023-02-19T19:46:50.224Z,64.41
2023-02-19T19:49:24.777Z,62.47
2023-02-19T19:51:58.674Z,61.05
2023-02-19T19:54:35.287Z,58.56
2023-02-19T19:57:08.225Z,58.78
2023-02-19T19:59:42.886Z,59.89
2023-02-19T20:02:15.141Z,62.51
2023-02-19T20:04:45.263Z,65.04
2023-02-19T20:07:16.070Z,62.98
2023-02-19T20:09:59.107Z,60.70
2023-02-19T20:12:30.133Z,58.31
2023-02-19T20:15:04.225Z,57.55
2023-02-19T20:17:38.438Z,59.77
2023-02-19T20:20:10.393Z,65.14
2023-02-19T20:22:41.812Z,64.73
2023-02-19T20:25:14.702Z,62.57
2023-02-19T20:27:45.112Z,61.24
2023-02-19T20:30:17.289Z,59.71
2023-02-19T20:32:47.739Z,56.64
2023-02-19T20:35:19.260Z,57.20
2023-02-19T20:37:52.530Z,60.98
2023-02-19T20:40:22.090Z,63.19
2023-02-19T20:42:54.695Z,64.76
2023-02-19T20:45:25.336Z,62.80
2023-02-19T20:47:57.344Z,60.93
2023-02-19T20:50:27.349Z,59.25
2023-02-19T20:52:57.628Z,56.93
2023-02-19T20:55:27.374Z,58.10
2023-02-19T20:57:57.087Z,59.59
2023-02-19T21:00:26.941Z,62.08
2023-02-19T21:02:57.476Z,65.93
2023-02-19T21:05:27.941Z,65.93
2023-02-19T21:07:57.373Z,63.13
2023-02-19T21:10:26.746Z,61.70
2023-02-19T21:12:55.264Z,58.63
2023-02-19T21:15:23.984Z,56.86
2023-02-19T21:17:51.099Z,60.89
2023-02-19T21:20:18.320Z,64.20
2023-02-19T21:22:45.855Z,64.42
2023-02-19T21:25:13.692Z,60.94
2023-02-19T21:27:41.513Z,58.85
2023-02-19T21:30:09.930Z,57.67
2023-02-19T21:32:37.113Z,59.11
2023-02-19T21:35:04.668Z,63.80
2023-02-19T21:37:31.941Z,65.20
2023-02-19T21:40:00.744Z,62.89
2023-02-19T21:42:28.031Z,59.84
2023-02-19T21:44:59.031Z,57.76
2023-02-19T21:47:28.065Z,60.37
2023-02-19T21:49:55.184Z,62.95
2023-02-19T21:52:23.927Z,64.04
2023-02-19T21:54:51.000Z,62.67
2023-02-19T21:57:18.093Z,61.23
2023-02-19T21:59:45.306Z,58.73
2023-02-19T22:02:13.194Z,56.57
2023-02-19T22:04:40.119Z,58.12
2023-02-19T22:07:07.533Z,60.62
2023-02-19T22:09:34.865Z,63.75
2023-02-19T22:12:02.070Z,65.38
2023-02-19T22:14:29.768Z,61.57
2023-02-19T22:16:56.795Z,60.57
2023-02-19T22:19:23.890Z,58.09
2023-02-19T22:21:51.216Z,57.14
2023-02-19T22:24:21.288Z,58.37
2023-02-19T22:26:50.930Z,61.25
2023-02-19T22:29:19.273Z,64.72
2023-02-19T22:31:50.800Z,66.24
2023-02-19T22:34:18.134Z,64.19
2023-02-19T22:36:46.527Z,60.93
2023-02-19T22:39:20.188Z,58.45
2023-02-19T22:41:47.996Z,58.38
2023-02-19T22:44:15.852Z,60.75
2023-02-19T22:46:51.555Z,64.18
2023-02-19T22:49:19.822Z,64.81
2023-02-19T22:51:55.939Z,62.67
2023-02-19T22:54:30.121Z,60.65
2023-02-19T22:56:58.224Z,57.97
2023-02-19T22:59:25.730Z,59.37
2023-02-19T23:01:53.237Z,62.46
2023-02-19T23:04:22.280Z,64.61
2023-02-19T23:06:52.595Z,64.05
2023-02-19T23:09:27.506Z,62.10
2023-02-19T23:12:05.675Z,60.43
2023-02-19T23:14:33.373Z,57.03
2023-02-19T23:17:00.611Z,56.55
2023-02-19T23:19:28.775Z,58.44
2023-02-19T23:21:57.014Z,62.66
2023-02-19T23:24:25.018Z,63.78
2023-02-19T23:26:56.204Z,62.38
2023-02-19T23:29:27.455Z,60.09
2023-02-19T23:31:58.819Z,56.78
2023-02-19T23:34:26.166Z,57.97
2023-02-19T23:36:55.701Z,59.06
2023-02-19T23:39:23.121Z,59.98
2023-02-19T23:41:55.441Z,63.32
2023-02-19T23:44:26.348Z,65.75
2023-02-19T23:46:53.641Z,63.57
2023-02-19T23:49:21.296Z,61.37
2023-02-19T23:51:50.191Z,60.58
2023-02-19T23:54:17.536Z,57.92
2023-02-19T23:56:44.573Z,57.68
2023-02-19T23:59:12.388Z,58.77
